Terminal Aerodrome Forecast
Issued by NWS Memphis, TN

Home | Current Version | Previous Version | Text Only | Print | Product List | Glossary On
Versions: 1 2 3 4 5 6 7 8 9 10 11 12 13 14 15 16
000
FTUS44 KMEG 240528
TAFMKL
TAF
KMKL 240528Z 2406/2506 18011G17KT P6SM FEW035 FEW250 WS020/20055KT
     FM241400 20014G22KT P6SM SCT035 SCT250
     FM242200 24010KT P6SM VCTS BKN040CB OVC120
      TEMPO 2423/2503 6SM -SHRA BKN030
     FM250300 31012G19KT P6SM SCT035 BKN120=

USA.gov is the U.S. government's official web portal to all federal, state and local government web resources and services.